| time (UTC) | temp F | wind direction | speed MPH | gust MPH | rain 1hr in | rain 24hr in | rain mn in | humidity % | barometer mb |
| 20260505064735 | 60 | 0.0 | 0.0 | 0.00 | 0.00 | 0.00 | 56 | 1016.3 | |
| 20260505063717 | 60 | 0.0 | 0.0 | 0.00 | 0.00 | 0.00 | 56 | 1016.4 | |
| 20260505062717 | 61 | 338 | 1.0 | 2.0 | 0.00 | 0.00 | 0.00 | 56 | 1016.3 |
| 20260505061717 | 61 | 0.0 | 0.0 | 0.00 | 0.00 | 0.00 | 55 | 1016.2 | |
| 20260505060757 | 61 | 0.0 | 0.0 | 0.00 | 0.00 | 0.00 | 55 | 1016.3 | |
| 20260505055717 | 61 | 0.0 | 1.0 | 0.00 | 0.00 | 0.00 | 55 | 1016.4 | |
| 20260505054717 | 62 | 0.0 | 1.0 | 0.00 | 0.00 | 0.00 | 55 | 1016.3 | |
| 20260505053717 | 62 | 0.0 | 0.0 | 0.00 | 0.00 | 0.00 | 54 | 1016.4 | |
| 20260505052717 | 62 | 0.0 | 0.0 | 0.00 | 0.00 | 0.00 | 54 | 1016.5 | |
| 20260505051717 | 62 | 0.0 | 1.0 | 0.00 | 0.00 | 0.00 | 54 | 1016.6 | |
| 20260505050717 | 62 | 0.0 | 0.0 | 0.00 | 0.00 | 0.00 | 54 | 1016.6 | |
| 20260505041717 | 63 | 0.0 | 0.0 | 0.00 | 0.00 | 0.00 | 53 | 1016.6 | |
| 20260505040757 | 64 | 0.0 | 2.0 | 0.00 | 0.00 | 0.00 | 52 | 1016.5 | |
| 20260505035717 | 64 | 0.0 | 1.0 | 0.00 | 0.00 | 0.00 | 52 | 1016.6 | |
| 20260505034737 | 64 | 338 | 1.0 | 3.0 | 0.00 | 0.00 | 0.00 | 52 | 1016.6 |
| 20260505033717 | 65 | 0.0 | 0.0 | 0.00 | 0.00 | 0.00 | 51 | 1016.5 | |
| 20260505032717 | 65 | 0.0 | 2.0 | 0.00 | 0.00 | 0.00 | 51 | 1016.5 | |
| 20260505031737 | 65 | 0.0 | 0.0 | 0.00 | 0.00 | 0.00 | 50 | 1016.5 | |
| 20260505030717 | 65 | 0.0 | 2.0 | 0.00 | 0.00 | 0.00 | 50 | 1016.5 | |
| 20260505025717 | 66 | 90 | 1.0 | 3.0 | 0.00 | 0.00 | 0.00 | 50 | 1016.6 |
| 20260505024737 | 66 | 0.0 | 0.0 | 0.00 | 0.00 | 0.00 | 49 | 1016.5 | |
| 20260505023717 | 67 | 0.0 | 0.0 | 0.00 | 0.00 | 0.00 | 49 | 1016.5 | |
| 20260505022716 | 67 | 0.0 | 0.0 | 0.00 | 0.00 | 0.00 | 48 | 1016.4 | |
| 20260505021737 | 68 | 0.0 | 3.0 | 0.00 | 0.00 | 0.00 | 48 | 1016.2 | |
| 20260505020716 | 68 | 0.0 | 2.0 | 0.00 | 0.00 | 0.00 | 47 | 1016.2 | |
| 20260505015716 | 68 | 90 | 1.0 | 3.0 | 0.00 | 0.00 | 0.00 | 45 | 1016.2 |
| 20260505014717 | 69 | 68 | 1.0 | 3.0 | 0.00 | 0.00 | 0.00 | 42 | 1016.0 |
| 20260505013717 | 69 | 0.0 | 1.0 | 0.00 | 0.00 | 0.00 | 37 | 1015.9 | |
| 20260505012717 | 69 | 0.0 | 3.0 | 0.00 | 0.00 | 0.00 | 35 | 1015.7 | |
| 20260505011717 | 70 | 0.0 | 0.0 | 0.00 | 0.00 | 0.00 | 35 | 1015.4 | |
| 20260505010717 | 70 | 0.0 | 1.0 | 0.00 | 0.00 | 0.00 | 34 | 1015.3 | |
| 20260505005717 | 70 | 0.0 | 0.0 | 0.00 | 0.00 | 0.00 | 33 | 1015.2 | |
| 20260505004757 | 71 | 0.0 | 2.0 | 0.00 | 0.00 | 0.00 | 32 | 1015.0 | |
| 20260505003717 | 71 | 0.0 | 0.0 | 0.00 | 0.00 | 0.00 | 32 | 1015.0 | |
| 20260505002716 | 72 | 0.0 | 1.0 | 0.00 | 0.00 | 0.00 | 31 | 1014.8 | |
| 20260505001717 | 72 | 0.0 | 1.0 | 0.00 | 0.00 | 0.00 | 31 | 1014.8 | |
| 20260505000736 | 73 | 0.0 | 0.0 | 0.00 | 0.00 | 0.00 | 30 | 1014.8 | |
| 20260504235726 | 73 | 0.0 | 2.0 | 0.00 | 0.00 | 0.00 | 29 | 1014.8 | |
| 20260504235117 | 74 | 0.0 | 0.0 | 0.00 | 0.00 | 0.00 | 29 | 1014.7 | |
| 20260504234117 | 74 | 0.0 | 0.0 | 0.00 | 0.00 | 0.00 | 29 | 1014.5 | |
| 20260504233117 | 74 | 0.0 | 1.0 | 0.00 | 0.00 | 0.00 | 28 | 1014.3 | |
| 20260504232117 | 75 | 0.0 | 1.0 | 0.00 | 0.00 | 0.00 | 28 | 1014.3 | |
| 20260504231117 | 76 | 0.0 | 1.0 | 0.00 | 0.00 | 0.00 | 26 | 1014.2 | |
| 20260504230117 | 76 | 0.0 | 1.0 | 0.00 | 0.00 | 0.00 | 25 | 1014.2 | |
| 20260504225137 | 77 | 0.0 | 1.0 | 0.00 | 0.00 | 0.00 | 25 | 1014.2 | |
| 20260504224137 | 78 | 0.0 | 1.0 | 0.00 | 0.00 | 0.00 | 25 | 1014.2 | |
| 20260504223117 | 78 | 68 | 1.0 | 3.0 | 0.00 | 0.00 | 0.00 | 22 | 1014.2 |
| 20260504222117 | 79 | 0.0 | 2.0 | 0.00 | 0.00 | 0.00 | 23 | 1014.2 | |
| 20260504221137 | 79 | 90 | 1.0 | 3.0 | 0.00 | 0.00 | 0.00 | 21 | 1014.2 |
| 20260504220117 | 79 | 0.0 | 1.0 | 0.00 | 0.00 | 0.00 | 22 | 1014.2 | |
| 20260504215117 | 79 | 0.0 | 0.0 | 0.00 | 0.00 | 0.00 | 24 | 1014.3 | |
| 20260504214117 | 79 | 0.0 | 1.0 | 0.00 | 0.00 | 0.00 | 25 | 1014.4 | |
| 20260504213117 | 79 | 0.0 | 2.0 | 0.00 | 0.00 | 0.00 | 21 | 1014.4 | |
| 20260504212117 | 80 | 338 | 1.0 | 2.0 | 0.00 | 0.00 | 0.00 | 21 | 1014.4 |
| 20260504211117 | 80 | 338 | 1.0 | 3.0 | 0.00 | 0.00 | 0.00 | 23 | 1014.4 |
| 20260504210117 | 80 | 270 | 1.0 | 2.0 | 0.00 | 0.00 | 0.00 | 21 | 1014.5 |
| 20260504205117 | 80 | 68 | 1.0 | 2.0 | 0.00 | 0.00 | 0.00 | 23 | 1014.5 |
| 20260504204117 | 80 | 315 | 2.0 | 3.0 | 0.00 | 0.00 | 0.00 | 19 | 1014.7 |
| 20260504203117 | 80 | 0.0 | 1.0 | 0.00 | 0.00 | 0.00 | 23 | 1014.6 | |
| 20260504202117 | 80 | 293 | 1.0 | 3.0 | 0.00 | 0.00 | 0.00 | 21 | 1014.8 |
| 20260504201117 | 80 | 180 | 1.0 | 4.0 | 0.00 | 0.00 | 0.00 | 25 | 1015.0 |
| 20260504200117 | 80 | 180 | 1.0 | 4.0 | 0.00 | 0.00 | 0.00 | 22 | 1015.1 |
| 20260504195117 | 81 | 293 | 3.0 | 7.0 | 0.00 | 0.00 | 0.00 | 21 | 1015.1 |
| 20260504194116 | 80 | 0.0 | 1.0 | 0.00 | 0.00 | 0.00 | 26 | 1015.1 | |
| 20260504193116 | 79 | 113 | 1.0 | 4.0 | 0.00 | 0.00 | 0.00 | 28 | 1015.1 |
| 20260504192116 | 79 | 0.0 | 1.0 | 0.00 | 0.00 | 0.00 | 23 | 1015.3 | |
| 20260504191116 | 80 | 293 | 1.0 | 4.0 | 0.00 | 0.00 | 0.00 | 24 | 1015.4 |
| 20260504190116 | 80 | 0.0 | 3.0 | 0.00 | 0.00 | 0.00 | 26 | 1015.6 | |
| 20260504185137 | 79 | 0.0 | 1.0 | 0.00 | 0.00 | 0.00 | 29 | 1015.8 | |
| 20260504184136 | 78 | 0.0 | 0.0 | 0.00 | 0.00 | 0.00 | 24 | 1015.8 | |
| 20260504183117 | 78 | 0.0 | 2.0 | 0.00 | 0.00 | 0.00 | 27 | 1015.8 | |
| 20260504182116 | 78 | 0.0 | 2.0 | 0.00 | 0.00 | 0.00 | 32 | 1016.0 | |
| 20260504181136 | 78 | 0.0 | 0.0 | 0.00 | 0.00 | 0.00 | 24 | 1016.0 | |
| 20260504180116 | 78 | 315 | 2.0 | 8.0 | 0.00 | 0.00 | 0.00 | 24 | 1016.1 |
| 20260504175116 | 77 | 315 | 1.0 | 3.0 | 0.00 | 0.00 | 0.00 | 27 | 1016.2 |
| 20260504174116 | 78 | 0.0 | 1.0 | 0.00 | 0.00 | 0.00 | 33 | 1016.4 | |
| 20260504173116 | 77 | 293 | 2.0 | 5.0 | 0.00 | 0.00 | 0.00 | 29 | 1016.4 |
| 20260504172136 | 75 | 338 | 1.0 | 2.0 | 0.00 | 0.00 | 0.00 | 30 | 1016.7 |
| 20260504171117 | 76 | 315 | 3.0 | 7.0 | 0.00 | 0.00 | 0.00 | 29 | 1017.0 |
| 20260504170116 | 75 | 315 | 3.0 | 5.0 | 0.00 | 0.00 | 0.00 | 27 | 1016.9 |
| 20260504160116 | 73 | 68 | 1.0 | 5.0 | 0.00 | 0.00 | 0.00 | 33 | 1017.7 |
| 20260504151136 | 70 | 293 | 1.0 | 4.0 | 0.00 | 0.00 | 0.00 | 43 | 1017.9 |
| 20260504150116 | 69 | 338 | 1.0 | 3.0 | 0.00 | 0.00 | 0.00 | 41 | 1018.0 |
| 20260504141116 | 65 | 0.0 | 1.0 | 0.00 | 0.01 | 0.00 | 51 | 1018.2 | |
| 20260504140116 | 64 | 315 | 1.0 | 2.0 | 0.00 | 0.01 | 0.00 | 50 | 1018.2 |
| 20260504130116 | 60 | 0.0 | 1.0 | 0.00 | 0.01 | 0.00 | 62 | 1018.4 | |
| 20260504120115 | 53 | 0.0 | 0.0 | 0.00 | 0.01 | 0.00 | 77 | 1018.5 | |
| 20260504110137 | 49 | 0.0 | 0.0 | 0.00 | 0.01 | 0.00 | 76 | 1018.5 | |
| 20260504100117 | 50 | 0.0 | 0.0 | 0.00 | 0.01 | 0.00 | 73 | 1018.3 | |
| 20260504090137 | 51 | 0.0 | 0.0 | 0.00 | 0.01 | 0.00 | 69 | 1018.2 | |
| 20260504081117 | 51 | 0.0 | 0.0 | 0.00 | 0.01 | 0.00 | 67 | 1018.3 | |
| 20260504080117 | 52 | 0.0 | 0.0 | 0.00 | 0.01 | 0.00 | 66 | 1018.2 | |
| 20260504070116 | 53 | 0.0 | 0.0 | 0.00 | 0.01 | 0.00 | 59 | 1018.2 |